Time;durP1;ratioP1;P1;durP2;ratioP2;P2;SDS_P1;SDS_P2;PMS_P1;PMS_P2;Temp;Humidity;BMP_temperature;BMP_pressure;BME280_temperature;BME280_humidity;BME280_pressure;Samples;Min_cycle;Max_cycle;Signal;HPM_P1;HPM_P2
2023/01/25 00:00:32;;;;;;;5.77;5.17;;;6.30;84.10;;;;;;957886;149;27310;-77
2023/01/25 00:02:59;;;;;;;5.23;4.77;;;6.30;84.10;;;;;;958687;147;27431;-77
2023/01/25 00:05:25;;;;;;;5.37;4.87;;;6.30;84.20;;;;;;958038;149;27298;-78
2023/01/25 00:07:52;;;;;;;5.33;4.83;;;6.30;84.20;;;;;;959191;147;27388;-77
2023/01/25 00:10:18;;;;;;;6.20;5.23;;;6.30;84.20;;;;;;958576;147;27404;-78
2023/01/25 00:12:45;;;;;;;4.87;4.43;;;6.30;84.20;;;;;;966124;148;27273;-78
2023/01/25 00:15:12;;;;;;;6.23;5.63;;;6.30;84.20;;;;;;958985;149;27307;-77
2023/01/25 00:17:38;;;;;;;5.20;4.70;;;6.30;84.20;;;;;;957533;147;27343;-77
2023/01/25 00:20:05;;;;;;;5.30;4.80;;;6.30;84.30;;;;;;959454;149;27335;-77
2023/01/25 00:22:31;;;;;;;4.87;4.37;;;6.30;84.40;;;;;;958465;147;27353;-77
2023/01/25 00:24:58;;;;;;;5.43;4.93;;;6.30;84.30;;;;;;958230;149;27349;-77
2023/01/25 00:27:25;;;;;;;5.47;4.97;;;6.30;84.40;;;;;;957626;147;27232;-77
2023/01/25 00:29:51;;;;;;;5.50;4.80;;;6.20;84.40;;;;;;957633;149;27280;-77
2023/01/25 00:32:20;;;;;;;5.63;5.13;;;6.30;85.10;;;;;;957214;148;27360;-77
2023/01/25 00:34:47;;;;;;;5.73;5.23;;;6.20;84.50;;;;;;949749;150;27349;-77
2023/01/25 00:37:14;;;;;;;5.93;5.33;;;6.20;84.40;;;;;;950391;150;27300;-77
2023/01/25 00:39:40;;;;;;;6.63;6.00;;;6.20;84.50;;;;;;950080;150;27361;-77
2023/01/25 00:42:10;;;;;;;6.70;6.00;;;6.20;84.50;;;;;;951961;150;27324;-77
2023/01/25 00:44:36;;;;;;;6.80;5.97;;;6.20;84.50;;;;;;950356;148;27446;-77
2023/01/25 00:47:04;;;;;;;6.07;5.47;;;6.20;84.50;;;;;;950416;150;27253;-77
2023/01/25 00:49:30;;;;;;;6.40;5.80;;;6.20;84.60;;;;;;940804;152;27310;-77
2023/01/25 00:51:56;;;;;;;6.10;5.50;;;6.20;84.60;;;;;;959490;149;27383;-77
2023/01/25 00:54:22;;;;;;;7.83;6.03;;;6.20;84.80;;;;;;941479;152;27194;-77
2023/01/25 00:56:51;;;;;;;7.07;6.20;;;6.20;84.80;;;;;;940030;152;27372;-77
2023/01/25 00:59:16;;;;;;;6.20;5.60;;;6.20;84.80;;;;;;939481;152;27788;-78
2023/01/25 01:01:42;;;;;;;6.07;5.47;;;6.20;84.90;;;;;;940863;152;27298;-78
2023/01/25 01:04:09;;;;;;;6.53;5.03;;;6.20;85.00;;;;;;941719;152;27348;-77
2023/01/25 01:06:35;;;;;;;5.43;4.93;;;6.20;85.00;;;;;;941310;152;27364;-77
2023/01/25 01:09:02;;;;;;;5.77;5.17;;;6.20;85.00;;;;;;944765;151;27222;-77
2023/01/25 01:11:30;;;;;;;6.00;5.40;;;6.10;84.90;;;;;;944668;150;27352;-77
2023/01/25 01:13:55;;;;;;;6.60;5.97;;;6.20;85.00;;;;;;944411;151;27324;-78
2023/01/25 01:16:22;;;;;;;6.17;5.30;;;6.20;85.00;;;;;;944609;150;27242;-77
2023/01/25 01:18:49;;;;;;;6.10;5.50;;;6.20;85.30;;;;;;945348;150;27264;-77
2023/01/25 01:21:15;;;;;;;5.93;5.33;;;6.20;84.80;;;;;;944150;151;27313;-77
2023/01/25 01:23:41;;;;;;;5.97;5.40;;;6.10;84.80;;;;;;944809;151;27406;-78
2023/01/25 01:26:08;;;;;;;6.63;6.03;;;6.10;84.90;;;;;;944527;151;27316;-78
2023/01/25 01:28:35;;;;;;;6.40;5.80;;;6.10;84.90;;;;;;944622;151;27285;-77
2023/01/25 01:31:01;;;;;;;6.27;5.50;;;6.10;84.90;;;;;;944747;151;27303;-77
2023/01/25 01:33:28;;;;;;;6.87;6.13;;;6.10;84.90;;;;;;952405;148;27312;-78
2023/01/25 01:35:54;;;;;;;5.80;5.23;;;6.10;84.90;;;;;;965876;144;27322;-77
2023/01/25 01:38:21;;;;;;;6.40;5.80;;;6.10;84.90;;;;;;948030;147;27400;-77
2023/01/25 01:40:48;;;;;;;6.50;5.80;;;6.10;85.00;;;;;;966232;144;27283;-77
2023/01/25 01:43:17;;;;;;;6.83;5.60;;;6.10;85.00;;;;;;941085;147;27697;-77
2023/01/25 01:45:49;;;;;;;6.10;5.40;;;6.10;85.00;;;;;;963645;144;28103;-77
2023/01/25 01:48:28;;;;;;;6.00;5.43;;;6.10;85.00;;;;;;963090;146;27378;-78
2023/01/25 01:50:54;;;;;;;5.57;5.03;;;6.10;85.00;;;;;;964407;146;27372;-77
2023/01/25 01:53:21;;;;;;;6.83;5.73;;;6.00;85.00;;;;;;963247;146;27400;-77
2023/01/25 01:55:48;;;;;;;6.60;5.83;;;6.00;85.20;;;;;;963698;146;27428;-77
2023/01/25 01:58:14;;;;;;;6.30;5.33;;;6.00;85.10;;;;;;963933;146;27316;-77
2023/01/25 02:00:41;;;;;;;5.53;4.93;;;6.00;84.40;;;;;;966077;146;27236;-77
2023/01/25 02:03:08;;;;;;;6.40;5.80;;;6.00;85.20;;;;;;949397;147;27383;-76
2023/01/25 02:05:39;;;;;;;5.77;5.20;;;6.00;85.30;;;;;;949612;147;27394;-76
2023/01/25 02:08:06;;;;;;;6.50;5.73;;;6.00;85.30;;;;;;950985;148;27400;-76
2023/01/25 02:10:32;;;;;;;5.63;5.13;;;6.00;85.30;;;;;;963023;146;27340;-77
2023/01/25 02:12:59;;;;;;;7.33;5.30;;;6.00;85.20;;;;;;964326;146;27264;-76
2023/01/25 02:15:28;;;;;;;6.20;5.60;;;6.00;85.40;;;;;;964403;146;27331;-76
2023/01/25 02:17:55;;;;;;;5.80;5.20;;;5.90;85.20;;;;;;962965;146;27377;-76
2023/01/25 02:20:40;;;;;;;6.20;5.60;;;5.90;85.20;;;;;;963021;146;27659;-76
2023/01/25 02:23:25;;;;;;;5.97;5.07;;;5.90;85.20;;;;;;963250;146;27374;-76
2023/01/25 02:25:51;;;;;;;6.10;5.47;;;5.90;85.20;;;;;;964504;146;27272;-79
2023/01/25 02:28:18;;;;;;;6.07;5.43;;;5.90;85.30;;;;;;964462;146;27343;-79
2023/01/25 02:30:44;;;;;;;6.63;6.03;;;5.90;85.50;;;;;;962898;148;27358;-77
2023/01/25 02:33:11;;;;;;;6.43;5.83;;;5.80;85.60;;;;;;957158;147;27281;-76
2023/01/25 02:35:41;;;;;;;6.10;5.57;;;5.80;85.70;;;;;;958059;147;27359;-76
2023/01/25 02:38:07;;;;;;;7.13;5.63;;;5.80;85.80;;;;;;957046;147;27338;-77
2023/01/25 02:40:34;;;;;;;6.43;5.83;;;5.80;85.70;;;;;;957232;147;27336;-76
2023/01/25 02:43:00;;;;;;;7.20;5.50;;;5.80;85.70;;;;;;955482;147;28322;-76
2023/01/25 02:45:27;;;;;;;6.33;5.43;;;5.80;85.70;;;;;;956523;147;27308;-76
2023/01/25 02:47:53;;;;;;;5.47;4.97;;;5.80;85.70;;;;;;957486;147;27277;-76
2023/01/25 02:50:20;;;;;;;5.93;5.33;;;5.70;85.70;;;;;;957079;147;27304;-77
2023/01/25 02:52:47;;;;;;;6.97;5.60;;;5.70;85.60;;;;;;957756;147;27340;-76
2023/01/25 02:55:13;;;;;;;6.70;5.80;;;5.70;85.80;;;;;;956974;147;27409;-76
2023/01/25 02:57:40;;;;;;;6.83;5.97;;;5.70;85.90;;;;;;955804;147;27428;-76
2023/01/25 03:00:07;;;;;;;7.83;5.87;;;5.70;86.00;;;;;;957120;147;27416;-76
2023/01/25 03:02:33;;;;;;;6.03;5.53;;;5.70;86.20;;;;;;957891;147;27413;-76
2023/01/25 03:05:00;;;;;;;6.53;5.90;;;5.70;86.20;;;;;;956476;147;27320;-76
2023/01/25 03:07:26;;;;;;;7.80;6.70;;;5.70;86.30;;;;;;958336;147;27288;-76
2023/01/25 03:09:53;;;;;;;7.60;6.53;;;5.70;86.30;;;;;;956394;147;27839;-77
2023/01/25 03:12:19;;;;;;;7.33;6.53;;;5.70;86.40;;;;;;957086;147;27413;-76
2023/01/25 03:14:46;;;;;;;6.57;5.97;;;5.70;86.40;;;;;;965988;144;27286;-77
2023/01/25 03:17:13;;;;;;;6.10;5.33;;;5.70;86.50;;;;;;946949;148;27314;-76
2023/01/25 03:19:39;;;;;;;6.60;6.00;;;5.70;86.40;;;;;;965071;144;27282;-76
2023/01/25 03:22:06;;;;;;;6.97;6.13;;;5.70;86.50;;;;;;966758;144;27299;-76
2023/01/25 03:24:32;;;;;;;6.30;5.60;;;5.60;86.60;;;;;;947266;147;27344;-76
2023/01/25 03:27:12;;;;;;;6.97;6.03;;;5.60;86.70;;;;;;963615;146;27740;-76
2023/01/25 03:29:37;;;;;;;9.03;6.57;;;5.60;86.70;;;;;;964866;146;27296;-76
2023/01/25 03:32:04;;;;;;;6.33;5.67;;;5.70;86.70;;;;;;964712;146;27357;-76
2023/01/25 03:34:31;;;;;;;7.73;6.83;;;5.70;86.70;;;;;;963591;146;27487;-77
2023/01/25 03:36:57;;;;;;;6.40;5.80;;;5.60;86.80;;;;;;957400;147;27333;-77
2023/01/25 03:39:24;;;;;;;7.43;6.70;;;5.60;86.70;;;;;;965267;148;27788;-77
2023/01/25 03:41:50;;;;;;;6.50;5.87;;;5.60;86.90;;;;;;968042;147;27334;-77
2023/01/25 03:44:17;;;;;;;7.17;6.33;;;5.60;86.90;;;;;;964945;146;27309;-77
2023/01/25 03:46:43;;;;;;;7.07;6.30;;;5.60;86.80;;;;;;966278;146;27362;-77
2023/01/25 03:49:10;;;;;;;8.30;6.37;;;5.60;86.90;;;;;;964898;145;27696;-77
2023/01/25 03:51:37;;;;;;;7.00;5.63;;;5.60;87.00;;;;;;964858;145;27421;-77
2023/01/25 03:54:03;;;;;;;7.67;6.43;;;5.60;87.00;;;;;;965809;145;27247;-77
2023/01/25 03:56:30;;;;;;;7.27;6.40;;;5.60;86.90;;;;;;965739;145;27345;-77
2023/01/25 03:58:56;;;;;;;7.00;5.70;;;5.60;86.90;;;;;;964874;145;27382;-77
2023/01/25 04:01:23;;;;;;;7.47;5.97;;;5.60;86.90;;;;;;965713;145;27657;-77
2023/01/25 04:03:50;;;;;;;6.63;5.93;;;5.60;86.80;;;;;;963977;145;27319;-77
2023/01/25 04:06:16;;;;;;;8.13;6.57;;;5.60;86.80;;;;;;965614;145;27287;-77
2023/01/25 04:08:43;;;;;;;7.83;6.13;;;5.60;86.90;;;;;;965346;145;27432;-77
2023/01/25 04:11:09;;;;;;;7.80;6.90;;;5.60;87.00;;;;;;965059;145;27416;-77
2023/01/25 04:13:36;;;;;;;8.50;6.33;;;5.60;87.10;;;;;;966031;145;27388;-77
2023/01/25 04:16:02;;;;;;;8.67;6.70;;;5.60;87.20;;;;;;966939;145;27462;-77
2023/01/25 04:18:29;;;;;;;8.40;6.27;;;5.60;87.20;;;;;;966341;145;27337;-77
2023/01/25 04:20:56;;;;;;;6.50;5.80;;;5.50;87.20;;;;;;965922;145;27342;-77
2023/01/25 04:23:22;;;;;;;7.90;7.10;;;5.50;87.40;;;;;;964739;145;27389;-77
2023/01/25 04:25:55;;;;;;;7.10;5.77;;;5.50;87.40;;;;;;963164;145;27331;-77
2023/01/25 04:28:21;;;;;;;7.50;6.53;;;5.50;87.40;;;;;;964124;145;27300;-78
2023/01/25 04:30:48;;;;;;;8.57;6.57;;;5.50;87.50;;;;;;966463;145;27287;-78
2023/01/25 04:33:15;;;;;;;10.00;7.10;;;5.50;87.70;;;;;;965887;145;27370;-78
2023/01/25 04:35:41;;;;;;;7.37;6.43;;;5.50;87.80;;;;;;965980;145;27351;-78
2023/01/25 04:38:08;;;;;;;7.30;6.00;;;5.50;87.80;;;;;;964817;146;27333;-78
2023/01/25 04:40:34;;;;;;;7.60;6.53;;;5.50;87.80;;;;;;964100;145;28137;-78
2023/01/25 04:43:01;;;;;;;6.83;5.73;;;5.50;87.80;;;;;;965246;145;27338;-78
2023/01/25 04:45:28;;;;;;;6.50;5.90;;;5.50;87.80;;;;;;965195;145;27345;-78
2023/01/25 04:47:57;;;;;;;6.57;5.77;;;5.50;87.80;;;;;;965558;146;27327;-78
2023/01/25 04:50:24;;;;;;;6.83;6.13;;;5.60;87.90;;;;;;965000;145;27287;-78
2023/01/25 04:52:50;;;;;;;7.20;6.40;;;5.50;87.90;;;;;;966252;145;27364;-78
2023/01/25 04:55:17;;;;;;;8.07;6.70;;;5.60;88.00;;;;;;967206;145;27346;-78
2023/01/25 04:57:43;;;;;;;7.27;6.43;;;5.60;88.00;;;;;;965554;145;27346;-77
2023/01/25 05:00:10;;;;;;;8.07;6.93;;;5.60;88.00;;;;;;964818;145;27252;-78
2023/01/25 05:02:38;;;;;;;8.83;7.13;;;5.60;87.80;;;;;;965168;146;27345;-79
2023/01/25 05:05:03;;;;;;;8.03;7.00;;;5.60;87.70;;;;;;964695;145;27354;-78
2023/01/25 05:07:30;;;;;;;8.03;7.00;;;5.50;87.70;;;;;;966021;145;27342;-76
2023/01/25 05:09:56;;;;;;;7.33;6.50;;;5.60;87.70;;;;;;966508;145;27395;-77
2023/01/25 05:12:23;;;;;;;7.97;6.47;;;5.60;87.70;;;;;;964590;146;27362;-78
2023/01/25 05:14:50;;;;;;;8.77;7.30;;;5.60;87.70;;;;;;965632;145;27330;-78
2023/01/25 05:17:16;;;;;;;9.87;6.93;;;5.50;87.70;;;;;;965580;145;27355;-78
2023/01/25 05:19:43;;;;;;;8.03;6.73;;;5.50;87.00;;;;;;965011;145;27351;-78
2023/01/25 05:22:15;;;;;;;8.67;6.50;;;5.50;87.80;;;;;;965336;145;27438;-78
2023/01/25 05:24:41;;;;;;;9.63;6.67;;;5.50;87.80;;;;;;965768;145;28600;-78
2023/01/25 05:27:08;;;;;;;7.13;6.17;;;5.50;87.80;;;;;;965916;145;27338;-78
2023/01/25 05:29:38;;;;;;;7.07;6.03;;;5.50;87.80;;;;;;964007;145;27283;-78
2023/01/25 05:32:04;;;;;;;7.40;6.13;;;5.50;87.80;;;;;;963221;146;27426;-78
2023/01/25 05:34:31;;;;;;;7.40;6.00;;;5.50;88.20;;;;;;964600;145;27268;-78
2023/01/25 05:36:57;;;;;;;7.87;6.70;;;5.50;87.90;;;;;;958599;147;27359;-78
2023/01/25 05:39:24;;;;;;;8.13;6.93;;;5.50;87.90;;;;;;958068;147;28397;-78
2023/01/25 05:41:50;;;;;;;6.87;6.23;;;5.40;87.80;;;;;;958243;149;27382;-78
2023/01/25 05:44:17;;;;;;;6.80;6.13;;;5.40;87.80;;;;;;958213;147;27287;-78
2023/01/25 05:46:43;;;;;;;8.33;6.13;;;5.40;88.00;;;;;;957564;147;27305;-78
2023/01/25 05:49:10;;;;;;;7.33;6.17;;;5.40;87.90;;;;;;957372;147;27340;-78
2023/01/25 05:51:37;;;;;;;7.37;6.17;;;5.40;87.90;;;;;;956994;147;27375;-78
2023/01/25 05:54:03;;;;;;;6.67;5.47;;;5.40;88.00;;;;;;957205;147;27297;-78
2023/01/25 05:56:30;;;;;;;7.67;6.47;;;5.40;88.00;;;;;;958195;147;27245;-78
2023/01/25 05:58:56;;;;;;;7.27;6.30;;;5.40;88.00;;;;;;958273;147;27344;-78
2023/01/25 06:01:23;;;;;;;6.83;5.97;;;5.40;88.00;;;;;;957994;147;27351;-78
2023/01/25 06:03:50;;;;;;;7.93;6.13;;;5.40;88.00;;;;;;958472;147;27264;-78
2023/01/25 06:06:16;;;;;;;7.33;6.23;;;5.30;87.80;;;;;;956662;147;27301;-78
2023/01/25 06:08:43;;;;;;;7.80;5.93;;;5.30;87.80;;;;;;957458;147;27333;-78
2023/01/25 06:11:09;;;;;;;7.17;5.83;;;5.30;87.70;;;;;;957870;147;27425;-78
2023/01/25 06:13:36;;;;;;;7.10;6.13;;;5.30;87.70;;;;;;955948;147;27465;-78
2023/01/25 06:16:02;;;;;;;7.93;6.67;;;5.30;87.80;;;;;;956783;147;27309;-78
2023/01/25 06:18:29;;;;;;;7.33;6.57;;;5.30;87.70;;;;;;958579;147;27402;-78
2023/01/25 06:20:56;;;;;;;8.77;6.23;;;5.20;87.70;;;;;;957764;147;27427;-78
2023/01/25 06:23:22;;;;;;;7.63;6.17;;;5.20;87.70;;;;;;957002;147;27395;-77
2023/01/25 06:25:49;;;;;;;8.67;6.30;;;5.20;87.70;;;;;;958026;149;27292;-77
2023/01/25 06:28:15;;;;;;;7.00;5.67;;;5.20;87.80;;;;;;956848;147;27369;-77
2023/01/25 06:30:42;;;;;;;6.77;6.07;;;5.20;87.80;;;;;;957364;147;27260;-78
2023/01/25 06:33:09;;;;;;;6.97;6.20;;;5.10;87.80;;;;;;957166;147;27343;-77
2023/01/25 06:35:35;;;;;;;6.70;5.70;;;5.10;87.90;;;;;;958741;147;27296;-77
2023/01/25 06:38:02;;;;;;;7.13;6.17;;;5.10;88.10;;;;;;957110;147;27371;-77
2023/01/25 06:40:28;;;;;;;7.57;6.23;;;5.10;88.20;;;;;;958117;147;27343;-77
2023/01/25 06:42:55;;;;;;;7.47;6.63;;;5.10;88.40;;;;;;958204;147;27323;-78
2023/01/25 06:45:21;;;;;;;8.83;6.23;;;5.10;88.60;;;;;;942776;147;27353;-77
2023/01/25 06:47:48;;;;;;;7.67;6.63;;;5.10;88.60;;;;;;949646;147;27299;-78
2023/01/25 06:50:15;;;;;;;6.63;5.97;;;5.10;88.50;;;;;;964669;145;27210;-77
2023/01/25 06:52:41;;;;;;;8.00;6.83;;;5.10;88.50;;;;;;964510;146;27279;-78
2023/01/25 06:55:12;;;;;;;8.67;6.57;;;5.10;88.60;;;;;;964388;146;27432;-77
2023/01/25 06:57:34;;;;;;;6.70;5.90;;;5.10;88.50;;;;;;962652;148;27271;-78
2023/01/25 07:00:01;;;;;;;6.67;5.80;;;5.10;88.30;;;;;;957329;147;27361;-77
2023/01/25 07:02:28;;;;;;;9.57;7.03;;;5.10;88.30;;;;;;955989;147;27408;-77
2023/01/25 07:04:54;;;;;;;7.50;6.53;;;5.10;88.20;;;;;;957959;147;27339;-78
2023/01/25 07:07:21;;;;;;;7.03;6.03;;;5.10;88.30;;;;;;957438;147;27344;-78
2023/01/25 07:09:47;;;;;;;7.00;5.97;;;5.10;88.20;;;;;;957489;147;27418;-76
2023/01/25 07:12:14;;;;;;;9.27;5.97;;;5.00;88.10;;;;;;959232;147;27388;-79
2023/01/25 07:14:40;;;;;;;8.10;6.50;;;5.00;88.30;;;;;;965114;145;27378;-80
2023/01/25 07:17:07;;;;;;;8.57;6.67;;;5.00;88.40;;;;;;966092;144;28048;-81
2023/01/25 07:19:34;;;;;;;7.77;5.97;;;5.00;88.60;;;;;;965300;144;27314;-80
2023/01/25 07:22:00;;;;;;;8.20;6.00;;;5.00;88.60;;;;;;963754;146;27347;-80
2023/01/25 07:24:28;;;;;;;7.23;6.10;;;5.00;88.70;;;;;;952238;147;27363;-76
2023/01/25 07:26:53;;;;;;;7.60;6.67;;;5.00;88.80;;;;;;944760;147;27383;-79
2023/01/25 07:29:20;;;;;;;6.80;6.10;;;5.00;88.80;;;;;;961794;146;27952;-79
2023/01/25 07:31:47;;;;;;;8.30;6.47;;;5.00;88.70;;;;;;948859;147;27295;-81
2023/01/25 07:34:13;;;;;;;7.00;6.10;;;5.00;88.60;;;;;;949066;147;27327;-79
2023/01/25 07:36:40;;;;;;;6.83;6.13;;;5.00;88.70;;;;;;952320;145;27374;-79
2023/01/25 07:39:09;;;;;;;7.47;6.00;;;5.00;88.80;;;;;;952727;148;27428;-79
2023/01/25 07:41:33;;;;;;;8.23;6.10;;;5.00;88.80;;;;;;951164;148;27330;-78
2023/01/25 07:43:59;;;;;;;7.20;6.03;;;5.00;88.80;;;;;;949177;149;27400;-78
2023/01/25 07:46:26;;;;;;;6.80;6.07;;;5.00;88.50;;;;;;958417;149;27431;-79
2023/01/25 07:48:53;;;;;;;7.60;5.60;;;5.00;89.10;;;;;;957304;147;27276;-79
2023/01/25 07:51:22;;;;;;;6.93;5.53;;;5.00;88.50;;;;;;957941;149;27449;-79
2023/01/25 07:53:49;;;;;;;5.70;5.10;;;5.00;88.50;;;;;;958642;149;27406;-79
2023/01/25 07:56:15;;;;;;;7.97;5.80;;;5.00;88.40;;;;;;957977;147;27920;-79
2023/01/25 07:58:41;;;;;;;6.97;5.63;;;5.00;88.50;;;;;;948301;151;27308;-79
2023/01/25 08:01:08;;;;;;;6.40;5.30;;;5.00;88.70;;;;;;947790;151;27446;-79
2023/01/25 08:03:35;;;;;;;6.67;5.73;;;5.00;88.70;;;;;;949232;151;27288;-78
2023/01/25 08:06:04;;;;;;;7.63;6.40;;;5.00;88.70;;;;;;967039;148;27277;-78
2023/01/25 08:08:28;;;;;;;7.77;6.33;;;5.10;88.80;;;;;;958423;147;27389;-78
2023/01/25 08:10:54;;;;;;;7.80;6.13;;;5.10;88.80;;;;;;958176;149;27305;-78
2023/01/25 08:13:21;;;;;;;7.13;6.27;;;5.10;88.90;;;;;;957841;149;27407;-79
2023/01/25 08:15:54;;;;;;;6.97;6.17;;;5.10;88.70;;;;;;958447;149;27355;-78
2023/01/25 08:18:20;;;;;;;7.33;6.03;;;5.10;88.60;;;;;;958499;149;27374;-78
2023/01/25 08:20:47;;;;;;;7.10;6.00;;;5.10;88.60;;;;;;949844;151;27448;-79
2023/01/25 08:23:14;;;;;;;6.43;5.33;;;5.10;88.80;;;;;;949731;149;27372;-79
2023/01/25 08:25:40;;;;;;;8.17;5.90;;;5.10;88.90;;;;;;948193;150;27377;-78
2023/01/25 08:28:06;;;;;;;7.27;5.93;;;5.10;88.80;;;;;;949414;151;27758;-79
2023/01/25 08:30:33;;;;;;;6.33;5.73;;;5.10;88.80;;;;;;968046;148;27303;-79
2023/01/25 08:33:00;;;;;;;7.27;6.53;;;5.10;89.00;;;;;;950927;151;27257;-78
2023/01/25 08:35:26;;;;;;;7.83;5.93;;;5.10;89.10;;;;;;949994;151;27363;-78
2023/01/25 08:37:53;;;;;;;7.43;6.27;;;5.20;89.20;;;;;;961149;147;27284;-79
2023/01/25 08:40:19;;;;;;;6.27;5.37;;;5.20;89.30;;;;;;964088;146;27291;-79
2023/01/25 08:42:46;;;;;;;7.53;6.50;;;5.20;89.40;;;;;;966662;146;27315;-79
2023/01/25 08:45:13;;;;;;;7.53;6.17;;;5.20;89.10;;;;;;966397;146;27347;-79
2023/01/25 08:47:39;;;;;;;7.07;6.37;;;5.20;89.40;;;;;;965433;146;27252;-79
2023/01/25 08:50:06;;;;;;;8.37;6.57;;;5.30;89.10;;;;;;963979;146;27363;-78
2023/01/25 08:52:32;;;;;;;6.50;5.80;;;5.30;88.90;;;;;;964871;146;27304;-79
2023/01/25 08:54:59;;;;;;;7.70;6.57;;;5.30;88.90;;;;;;964432;146;27383;-78
2023/01/25 08:57:26;;;;;;;7.00;5.87;;;5.30;88.90;;;;;;965778;146;27416;-78
2023/01/25 08:59:52;;;;;;;7.00;6.03;;;5.30;88.70;;;;;;964238;146;27339;-78
2023/01/25 09:02:20;;;;;;;7.40;6.13;;;5.30;88.70;;;;;;966201;146;27315;-79
2023/01/25 09:04:45;;;;;;;7.73;6.53;;;5.30;88.60;;;;;;964783;146;27264;-79
2023/01/25 09:07:12;;;;;;;8.30;5.93;;;5.30;88.60;;;;;;964246;146;27782;-79
2023/01/25 09:09:39;;;;;;;6.63;5.93;;;5.40;88.60;;;;;;964504;146;27338;-79
2023/01/25 09:12:05;;;;;;;7.67;6.07;;;5.40;88.50;;;;;;964359;146;27349;-78
2023/01/25 09:14:32;;;;;;;6.20;5.37;;;5.40;88.50;;;;;;962445;146;27467;-79
2023/01/25 09:16:58;;;;;;;7.60;5.87;;;5.30;88.30;;;;;;965183;146;27396;-78
2023/01/25 09:19:25;;;;;;;8.17;6.57;;;5.40;88.30;;;;;;963413;146;27339;-78
2023/01/25 09:21:51;;;;;;;7.60;5.87;;;5.40;88.30;;;;;;964269;146;27536;-79
2023/01/25 09:24:18;;;;;;;7.73;6.13;;;5.40;88.50;;;;;;963723;146;27397;-79
2023/01/25 09:26:45;;;;;;;7.53;6.53;;;5.40;88.60;;;;;;964539;146;27304;-79
2023/01/25 09:29:11;;;;;;;7.03;6.33;;;5.40;88.60;;;;;;964586;146;27346;-79
2023/01/25 09:31:43;;;;;;;7.07;6.10;;;5.40;88.80;;;;;;963726;146;27358;-79
2023/01/25 09:34:07;;;;;;;7.60;6.07;;;5.50;89.00;;;;;;962604;146;27394;-79
2023/01/25 09:36:34;;;;;;;7.63;6.43;;;5.50;89.00;;;;;;964217;146;27342;-79
2023/01/25 09:39:00;;;;;;;8.87;6.77;;;5.50;88.90;;;;;;965337;146;27390;-79
2023/01/25 09:42:00;;;;;;;8.10;6.83;;;5.60;88.80;;;;;;965227;146;27747;-79
2023/01/25 09:44:52;;;;;;;6.97;6.23;;;5.60;88.70;;;;;;965012;146;27335;-79
2023/01/25 09:47:30;;;;;;;7.33;6.20;;;5.60;88.60;;;;;;962929;146;27837;-78
2023/01/25 09:50:18;;;;;;;7.60;5.73;;;5.60;88.50;;;;;;962988;146;27240;-78
2023/01/25 09:53:00;;;;;;;6.63;5.93;;;5.60;88.50;;;;;;965711;146;27244;-78
2023/01/25 09:55:27;;;;;;;7.33;6.10;;;5.70;88.40;;;;;;964280;146;27885;-79
2023/01/25 09:57:55;;;;;;;7.30;6.17;;;5.70;88.50;;;;;;965289;146;27335;-79
2023/01/25 10:00:32;;;;;;;7.17;5.93;;;5.70;88.40;;;;;;964250;146;27786;-79
2023/01/25 10:03:21;;;;;;;7.03;6.23;;;5.70;88.40;;;;;;964740;146;27401;-79
2023/01/25 10:05:47;;;;;;;8.73;7.13;;;5.70;88.30;;;;;;965188;146;27405;-79
2023/01/25 10:08:28;;;;;;;8.03;6.47;;;5.70;88.20;;;;;;963360;146;27392;-79
2023/01/25 10:10:58;;;;;;;9.63;7.77;;;5.80;88.20;;;;;;965831;146;27280;-79
2023/01/25 10:13:30;;;;;;;10.87;7.47;;;5.80;88.00;;;;;;963333;146;27342;-79
2023/01/25 10:15:56;;;;;;;12.73;8.67;;;5.80;87.80;;;;;;964107;146;27404;-79
2023/01/25 10:18:26;;;;;;;14.57;8.53;;;5.80;87.80;;;;;;958745;146;27302;-79
2023/01/25 10:20:53;;;;;;;10.43;7.83;;;5.80;87.70;;;;;;963657;146;27358;-79
2023/01/25 10:23:25;;;;;;;9.77;7.30;;;5.80;87.80;;;;;;959400;146;27490;-78
2023/01/25 10:25:58;;;;;;;9.13;8.20;;;5.80;87.80;;;;;;965250;148;27336;-79
2023/01/25 10:28:48;;;;;;;7.27;6.40;;;5.80;87.90;;;;;;965874;144;27254;-79
2023/01/25 10:31:20;;;;;;;7.63;6.27;;;5.80;87.80;;;;;;963959;144;27317;-78
2023/01/25 10:33:47;;;;;;;7.90;6.00;;;5.80;87.80;;;;;;955942;147;27356;-78
2023/01/25 10:36:16;;;;;;;9.23;7.43;;;5.80;88.00;;;;;;955193;147;27308;-78
2023/01/25 10:38:44;;;;;;;7.97;6.27;;;5.80;87.90;;;;;;958626;145;27483;-78
2023/01/25 10:41:21;;;;;;;10.50;7.47;;;5.90;87.90;;;;;;968389;145;27455;-78
2023/01/25 10:44:20;;;;;;;7.87;7.03;;;5.90;87.80;;;;;;967568;145;27297;-78
2023/01/25 10:46:17;;;;;;;7.77;6.63;;;5.90;87.30;;;;;;967128;145;27268;-78
2023/01/25 10:48:43;;;;;;;9.03;6.87;;;5.90;87.00;;;;;;967041;145;27318;-78
2023/01/25 10:51:10;;;;;;;7.80;6.37;;;5.90;86.70;;;;;;967664;145;27334;-78
2023/01/25 10:53:38;;;;;;;7.57;6.67;;;5.90;86.50;;;;;;963952;145;27453;-78
2023/01/25 10:56:06;;;;;;;8.03;6.93;;;5.80;86.40;;;;;;969562;145;27376;-78
2023/01/25 10:58:35;;;;;;;6.83;5.97;;;5.80;86.60;;;;;;966567;145;27263;-78
2023/01/25 11:01:03;;;;;;;7.20;5.97;;;5.80;86.70;;;;;;968059;145;27343;-78
2023/01/25 11:03:41;;;;;;;8.40;7.20;;;5.80;86.90;;;;;;967671;145;27332;-78
2023/01/25 11:06:07;;;;;;;7.57;6.53;;;5.80;87.00;;;;;;968661;146;27363;-78
2023/01/25 11:08:37;;;;;;;8.20;7.00;;;5.80;87.00;;;;;;968420;145;27302;-78
2023/01/25 11:11:22;;;;;;;9.23;6.87;;;5.80;87.10;;;;;;968394;145;27392;-80
2023/01/25 11:13:48;;;;;;;8.33;6.43;;;5.80;87.20;;;;;;966192;145;27438;-78
2023/01/25 11:16:15;;;;;;;8.20;6.67;;;5.80;87.20;;;;;;957819;145;27346;-78
2023/01/25 11:18:50;;;;;;;8.30;6.80;;;5.80;87.10;;;;;;958086;145;27287;-78
2023/01/25 11:21:22;;;;;;;8.83;7.07;;;5.80;87.30;;;;;;976377;143;27381;-78
2023/01/25 11:23:43;;;;;;;8.40;6.70;;;5.80;86.80;;;;;;966736;145;27329;-78
2023/01/25 11:26:16;;;;;;;8.10;7.30;;;5.80;86.70;;;;;;975933;144;27419;-79
2023/01/25 11:28:43;;;;;;;6.87;5.63;;;5.80;86.60;;;;;;960594;145;27398;-79
2023/01/25 11:31:09;;;;;;;8.07;6.50;;;5.80;86.60;;;;;;975520;144;27358;-78
2023/01/25 11:33:36;;;;;;;8.37;6.63;;;5.80;86.60;;;;;;976936;143;27326;-79
2023/01/25 11:36:18;;;;;;;7.53;6.70;;;5.80;86.40;;;;;;978518;144;27345;-78
2023/01/25 11:38:44;;;;;;;8.00;7.17;;;5.80;86.50;;;;;;977575;144;27308;-79
2023/01/25 11:41:17;;;;;;;7.67;6.50;;;5.80;86.50;;;;;;951915;148;27430;-78
2023/01/25 11:43:43;;;;;;;7.50;6.40;;;5.80;86.40;;;;;;959661;147;27280;-78
2023/01/25 11:46:31;;;;;;;7.30;6.27;;;5.80;86.40;;;;;;956904;148;27455;-79
2023/01/25 11:49:04;;;;;;;6.63;5.93;;;5.80;86.30;;;;;;959409;148;27327;-79
2023/01/25 11:51:42;;;;;;;8.43;6.27;;;5.80;86.40;;;;;;936998;149;28927;-79
2023/01/25 11:54:27;;;;;;;8.20;6.13;;;5.80;86.70;;;;;;958847;149;27399;-79
2023/01/25 11:57:00;;;;;;;9.63;6.70;;;5.80;87.40;;;;;;959149;147;27319;-79
2023/01/25 11:59:45;;;;;;;6.97;5.93;;;5.80;86.70;;;;;;965640;148;27345;-79
2023/01/25 12:02:29;;;;;;;8.13;5.93;;;5.80;86.70;;;;;;965615;148;27330;-79
2023/01/25 12:05:08;;;;;;;7.57;6.13;;;5.80;86.70;;;;;;962516;148;27338;-79
2023/01/25 12:07:44;;;;;;;8.00;5.90;;;5.80;86.70;;;;;;964853;148;27334;-79
2023/01/25 12:10:16;;;;;;;8.63;7.03;;;5.80;86.60;;;;;;965885;148;28009;-79
2023/01/25 12:12:45;;;;;;;9.10;7.17;;;5.80;86.60;;;;;;965893;148;27423;-79
2023/01/25 12:15:24;;;;;;;8.40;6.77;;;5.80;86.50;;;;;;966357;148;27291;-79
2023/01/25 12:17:59;;;;;;;8.50;6.80;;;5.80;86.40;;;;;;965868;148;27410;-79
2023/01/25 12:20:50;;;;;;;8.03;6.70;;;5.80;86.30;;;;;;964281;148;27303;-79
2023/01/25 12:23:29;;;;;;;6.87;5.77;;;5.80;86.40;;;;;;966963;148;27445;-79
2023/01/25 12:26:10;;;;;;;7.23;6.07;;;5.80;86.60;;;;;;949012;151;27358;-79
2023/01/25 12:28:42;;;;;;;7.90;6.80;;;5.80;86.70;;;;;;949118;151;27792;-79
2023/01/25 12:31:34;;;;;;;8.63;7.20;;;5.90;86.80;;;;;;950929;150;27299;-79
2023/01/25 12:34:03;;;;;;;9.57;7.20;;;5.90;86.70;;;;;;966505;145;27230;-79
2023/01/25 12:36:38;;;;;;;8.53;5.93;;;5.90;86.60;;;;;;947960;148;27450;-78
2023/01/25 12:39:05;;;;;;;9.07;6.57;;;5.90;86.60;;;;;;949084;148;27248;-78
2023/01/25 12:41:42;;;;;;;7.23;6.43;;;5.90;86.40;;;;;;965501;145;27314;-78
2023/01/25 12:44:15;;;;;;;10.43;7.43;;;5.90;86.20;;;;;;958790;149;27307;-78
2023/01/25 12:46:44;;;;;;;7.77;6.57;;;6.00;86.30;;;;;;958915;149;27307;-79
2023/01/25 12:49:17;;;;;;;7.80;6.53;;;5.90;86.30;;;;;;956959;149;27256;-79
2023/01/25 12:51:43;;;;;;;7.60;6.80;;;6.00;87.00;;;;;;957570;149;27642;-79
2023/01/25 12:54:18;;;;;;;7.10;6.20;;;6.00;86.30;;;;;;957784;147;27287;-79
2023/01/25 12:56:45;;;;;;;7.87;7.00;;;5.90;86.10;;;;;;949913;151;27247;-79
2023/01/25 12:59:32;;;;;;;10.50;6.87;;;6.00;86.10;;;;;;967904;148;27328;-79
2023/01/25 13:02:14;;;;;;;8.03;6.40;;;6.00;86.00;;;;;;950582;151;27331;-79
2023/01/25 13:04:53;;;;;;;8.47;6.93;;;6.00;85.70;;;;;;950313;151;27323;-79